sensor_id;sensor_type;location;lat;lon;timestamp;temperature;humidity
39345;DHT22;25061;51.954;6.996;2023-04-29T05:32:34;9.10;99.90
39345;DHT22;25061;51.954;6.996;2023-04-29T05:35:00;9.10;99.90
39345;DHT22;25061;51.954;6.996;2023-04-29T05:37:26;9.00;99.90
39345;DHT22;25061;51.954;6.996;2023-04-29T05:39:56;9.00;99.90
39345;DHT22;25061;51.954;6.996;2023-04-29T05:42:22;9.10;99.90
39345;DHT22;25061;51.954;6.996;2023-04-29T05:44:48;9.00;99.90
39345;DHT22;25061;51.954;6.996;2023-04-29T05:47:14;9.00;99.90
39345;DHT22;25061;51.954;6.996;2023-04-29T05:49:40;9.00;99.90
39345;DHT22;25061;51.954;6.996;2023-04-29T05:52:06;9.00;99.90
39345;DHT22;25061;51.954;6.996;2023-04-29T05:54:32;9.00;99.90
39345;DHT22;25061;51.954;6.996;2023-04-29T05:56:59;9.00;99.90
39345;DHT22;25061;51.954;6.996;2023-04-29T05:59:29;9.00;99.90
39345;DHT22;25061;51.954;6.996;2023-04-29T06:01:58;9.00;99.90
39345;DHT22;25061;51.954;6.996;2023-04-29T06:04:25;9.00;99.90
39345;DHT22;25061;51.954;6.996;2023-04-29T06:06:52;9.10;99.90
39345;DHT22;25061;51.954;6.996;2023-04-29T06:09:20;9.10;99.90
39345;DHT22;25061;51.954;6.996;2023-04-29T06:11:50;9.10;99.90
39345;DHT22;25061;51.954;6.996;2023-04-29T06:14:17;9.10;99.90
39345;DHT22;25061;51.954;6.996;2023-04-29T06:16:42;9.10;99.90
39345;DHT22;25061;51.954;6.996;2023-04-29T06:19:08;9.10;99.90
39345;DHT22;25061;51.954;6.996;2023-04-29T06:21:34;9.10;99.90
39345;DHT22;25061;51.954;6.996;2023-04-29T06:23:59;9.10;99.90
39345;DHT22;25061;51.954;6.996;2023-04-29T06:26:25;9.00;99.90
39345;DHT22;25061;51.954;6.996;2023-04-29T06:28:50;9.10;99.90
39345;DHT22;25061;51.954;6.996;2023-04-29T06:31:16;9.10;99.90
39345;DHT22;25061;51.954;6.996;2023-04-29T06:33:42;9.10;99.90
39345;DHT22;25061;51.954;6.996;2023-04-29T06:36:08;9.00;99.90
39345;DHT22;25061;51.954;6.996;2023-04-29T06:38:34;9.10;99.90
39345;DHT22;25061;51.954;6.996;2023-04-29T06:40:59;9.10;99.90
39345;DHT22;25061;51.954;6.996;2023-04-29T06:43:26;9.10;99.90
39345;DHT22;25061;51.954;6.996;2023-04-29T06:45:52;9.00;99.90
39345;DHT22;25061;51.954;6.996;2023-04-29T06:48:17;9.10;99.90
39345;DHT22;25061;51.954;6.996;2023-04-29T06:50:53;9.10;99.90
39345;DHT22;25061;51.954;6.996;2023-04-29T06:53:20;9.10;99.90
39345;DHT22;25061;51.954;6.996;2023-04-29T06:55:46;9.10;99.90
39345;DHT22;25061;51.954;6.996;2023-04-29T06:58:12;9.10;99.90
39345;DHT22;25061;51.954;6.996;2023-04-29T07:00:38;9.10;99.90
39345;DHT22;25061;51.954;6.996;2023-04-29T07:03:04;9.10;99.90
39345;DHT22;25061;51.954;6.996;2023-04-29T07:05:31;9.10;99.90
39345;DHT22;25061;51.954;6.996;2023-04-29T07:07:57;9.10;99.90
39345;DHT22;25061;51.954;6.996;2023-04-29T07:10:23;9.20;99.90
39345;DHT22;25061;51.954;6.996;2023-04-29T07:12:52;9.20;99.90
39345;DHT22;25061;51.954;6.996;2023-04-29T07:15:17;9.20;99.90
39345;DHT22;25061;51.954;6.996;2023-04-29T07:17:43;9.20;99.90
39345;DHT22;25061;51.954;6.996;2023-04-29T07:20:09;9.20;99.90
39345;DHT22;25061;51.954;6.996;2023-04-29T07:22:35;9.20;99.90
39345;DHT22;25061;51.954;6.996;2023-04-29T07:25:00;9.20;99.90
39345;DHT22;25061;51.954;6.996;2023-04-29T07:27:26;9.30;99.90
39345;DHT22;25061;51.954;6.996;2023-04-29T07:29:52;9.30;99.90
39345;DHT22;25061;51.954;6.996;2023-04-29T07:32:18;9.30;99.90
39345;DHT22;25061;51.954;6.996;2023-04-29T07:34:43;9.40;99.90
39345;DHT22;25061;51.954;6.996;2023-04-29T07:37:09;9.50;99.90
39345;DHT22;25061;51.954;6.996;2023-04-29T07:39:35;9.50;99.90
39345;DHT22;25061;51.954;6.996;2023-04-29T07:42:01;9.50;99.90
39345;DHT22;25061;51.954;6.996;2023-04-29T07:44:27;9.50;99.90
39345;DHT22;25061;51.954;6.996;2023-04-29T07:46:53;9.60;99.90
39345;DHT22;25061;51.954;6.996;2023-04-29T07:49:19;9.70;99.90
39345;DHT22;25061;51.954;6.996;2023-04-29T07:51:44;9.60;99.90
39345;DHT22;25061;51.954;6.996;2023-04-29T07:54:10;9.60;99.90
39345;DHT22;25061;51.954;6.996;2023-04-29T07:56:36;9.70;99.90
39345;DHT22;25061;51.954;6.996;2023-04-29T07:59:01;9.70;99.90
39345;DHT22;25061;51.954;6.996;2023-04-29T08:01:27;9.70;99.90
39345;DHT22;25061;51.954;6.996;2023-04-29T08:03:53;9.80;99.90
39345;DHT22;25061;51.954;6.996;2023-04-29T08:06:19;9.80;99.90
39345;DHT22;25061;51.954;6.996;2023-04-29T08:08:48;9.90;99.90
39345;DHT22;25061;51.954;6.996;2023-04-29T08:11:20;9.90;99.90
39345;DHT22;25061;51.954;6.996;2023-04-29T08:13:46;10.00;99.90
39345;DHT22;25061;51.954;6.996;2023-04-29T08:16:12;10.00;99.90
39345;DHT22;25061;51.954;6.996;2023-04-29T08:18:39;10.00;99.90
39345;DHT22;25061;51.954;6.996;2023-04-29T08:21:05;10.10;99.90
39345;DHT22;25061;51.954;6.996;2023-04-29T08:23:30;10.10;99.90
39345;DHT22;25061;51.954;6.996;2023-04-29T08:25:57;10.20;99.90
39345;DHT22;25061;51.954;6.996;2023-04-29T08:28:23;10.20;99.90
39345;DHT22;25061;51.954;6.996;2023-04-29T08:30:49;10.20;99.90
39345;DHT22;25061;51.954;6.996;2023-04-29T08:33:15;10.20;99.90
39345;DHT22;25061;51.954;6.996;2023-04-29T08:35:41;10.20;99.90
39345;DHT22;25061;51.954;6.996;2023-04-29T08:38:08;10.20;99.90
39345;DHT22;25061;51.954;6.996;2023-04-29T08:40:45;10.30;99.90
39345;DHT22;25061;51.954;6.996;2023-04-29T08:43:14;10.30;99.90
39345;DHT22;25061;51.954;6.996;2023-04-29T08:45:41;10.30;99.90
39345;DHT22;25061;51.954;6.996;2023-04-29T08:48:08;10.30;99.90
39345;DHT22;25061;51.954;6.996;2023-04-29T08:50:41;10.40;99.90
39345;DHT22;25061;51.954;6.996;2023-04-29T08:53:11;10.40;99.90
39345;DHT22;25061;51.954;6.996;2023-04-29T08:55:45;10.40;99.90
39345;DHT22;25061;51.954;6.996;2023-04-29T08:58:12;10.50;99.90
39345;DHT22;25061;51.954;6.996;2023-04-29T09:00:39;10.60;99.90
39345;DHT22;25061;51.954;6.996;2023-04-29T09:06:10;10.70;99.90
39345;DHT22;25061;51.954;6.996;2023-04-29T09:08:38;10.80;99.90
39345;DHT22;25061;51.954;6.996;2023-04-29T09:11:04;10.80;99.90
39345;DHT22;25061;51.954;6.996;2023-04-29T09:13:33;10.90;99.90
39345;DHT22;25061;51.954;6.996;2023-04-29T09:15:59;10.90;99.90
39345;DHT22;25061;51.954;6.996;2023-04-29T09:18:47;10.90;99.90
39345;DHT22;25061;51.954;6.996;2023-04-29T09:21:17;10.90;99.90
39345;DHT22;25061;51.954;6.996;2023-04-29T09:23:48;11.00;99.90
39345;DHT22;25061;51.954;6.996;2023-04-29T09:26:15;11.00;99.90
39345;DHT22;25061;51.954;6.996;2023-04-29T09:28:41;11.10;99.90
39345;DHT22;25061;51.954;6.996;2023-04-29T09:31:10;11.20;99.90
39345;DHT22;25061;51.954;6.996;2023-04-29T09:33:53;11.20;99.90
39345;DHT22;25061;51.954;6.996;2023-04-29T09:39:13;11.40;99.90
39345;DHT22;25061;51.954;6.996;2023-04-29T09:41:40;11.40;99.90
39345;DHT22;25061;51.954;6.996;2023-04-29T09:44:08;11.40;99.90
39345;DHT22;25061;51.954;6.996;2023-04-29T09:46:35;11.50;99.90
39345;DHT22;25061;51.954;6.996;2023-04-29T09:49:21;11.50;99.90
39345;DHT22;25061;51.954;6.996;2023-04-29T09:51:59;11.70;99.90
39345;DHT22;25061;51.954;6.996;2023-04-29T09:54:28;11.90;99.90
39345;DHT22;25061;51.954;6.996;2023-04-29T09:56:55;11.90;99.90
39345;DHT22;25061;51.954;6.996;2023-04-29T09:59:21;12.10;99.90
39345;DHT22;25061;51.954;6.996;2023-04-29T10:01:51;12.20;99.90
39345;DHT22;25061;51.954;6.996;2023-04-29T10:04:18;12.40;99.90
39345;DHT22;25061;51.954;6.996;2023-04-29T10:06:45;12.60;99.90
39345;DHT22;25061;51.954;6.996;2023-04-29T10:09:13;12.70;99.90
39345;DHT22;25061;51.954;6.996;2023-04-29T10:11:43;12.70;99.90
39345;DHT22;25061;51.954;6.996;2023-04-29T10:14:13;12.80;99.90
39345;DHT22;25061;51.954;6.996;2023-04-29T10:17:07;12.80;99.90
39345;DHT22;25061;51.954;6.996;2023-04-29T10:19:44;13.00;99.90
39345;DHT22;25061;51.954;6.996;2023-04-29T10:22:15;13.20;99.90
39345;DHT22;25061;51.954;6.996;2023-04-29T10:24:49;13.20;99.90
39345;DHT22;25061;51.954;6.996;2023-04-29T10:27:16;13.40;99.90
39345;DHT22;25061;51.954;6.996;2023-04-29T10:29:43;13.30;99.90
39345;DHT22;25061;51.954;6.996;2023-04-29T10:32:10;13.40;99.90
39345;DHT22;25061;51.954;6.996;2023-04-29T10:34:38;13.40;99.90
39345;DHT22;25061;51.954;6.996;2023-04-29T10:37:10;13.30;99.90
39345;DHT22;25061;51.954;6.996;2023-04-29T10:40:06;13.30;99.90
39345;DHT22;25061;51.954;6.996;2023-04-29T10:42:49;13.40;99.90
39345;DHT22;25061;51.954;6.996;2023-04-29T10:45:28;13.60;99.90
39345;DHT22;25061;51.954;6.996;2023-04-29T10:53:11;13.70;99.90
39345;DHT22;25061;51.954;6.996;2023-04-29T10:55:37;13.70;99.90
39345;DHT22;25061;51.954;6.996;2023-04-29T11:01:06;13.50;99.90
39345;DHT22;25061;51.954;6.996;2023-04-29T11:03:53;13.60;99.90
39345;DHT22;25061;51.954;6.996;2023-04-29T11:06:38;13.80;99.90
39345;DHT22;25061;51.954;6.996;2023-04-29T11:09:13;13.90;99.90
39345;DHT22;25061;51.954;6.996;2023-04-29T11:11:47;13.60;99.90
39345;DHT22;25061;51.954;6.996;2023-04-29T11:14:15;13.80;99.90
39345;DHT22;25061;51.954;6.996;2023-04-29T11:16:51;13.70;99.90
39345;DHT22;25061;51.954;6.996;2023-04-29T11:19:17;13.60;99.90
39345;DHT22;25061;51.954;6.996;2023-04-29T11:21:44;13.60;99.90
39345;DHT22;25061;51.954;6.996;2023-04-29T11:24:11;13.50;99.90
39345;DHT22;25061;51.954;6.996;2023-04-29T11:26:37;13.40;99.90
39345;DHT22;25061;51.954;6.996;2023-04-29T11:29:07;13.40;99.90
39345;DHT22;25061;51.954;6.996;2023-04-29T11:31:36;13.30;99.90
39345;DHT22;25061;51.954;6.996;2023-04-29T11:34:04;13.30;99.90
39345;DHT22;25061;51.954;6.996;2023-04-29T11:36:31;13.40;99.90
39345;DHT22;25061;51.954;6.996;2023-04-29T11:38:59;13.40;99.90
39345;DHT22;25061;51.954;6.996;2023-04-29T11:41:26;13.40;99.90
39345;DHT22;25061;51.954;6.996;2023-04-29T11:43:56;13.40;99.90
39345;DHT22;25061;51.954;6.996;2023-04-29T11:46:22;13.40;99.90
39345;DHT22;25061;51.954;6.996;2023-04-29T11:48:48;13.40;99.90
39345;DHT22;25061;51.954;6.996;2023-04-29T11:51:16;13.50;99.90
39345;DHT22;25061;51.954;6.996;2023-04-29T11:53:42;13.70;99.90
39345;DHT22;25061;51.954;6.996;2023-04-29T11:56:08;13.80;99.90
39345;DHT22;25061;51.954;6.996;2023-04-29T11:58:35;13.90;99.90
39345;DHT22;25061;51.954;6.996;2023-04-29T12:01:02;14.00;99.90
39345;DHT22;25061;51.954;6.996;2023-04-29T12:03:30;14.10;99.90
39345;DHT22;25061;51.954;6.996;2023-04-29T12:05:56;14.20;99.90
39345;DHT22;25061;51.954;6.996;2023-04-29T12:08:26;14.10;99.90
39345;DHT22;25061;51.954;6.996;2023-04-29T12:10:54;14.20;99.90
39345;DHT22;25061;51.954;6.996;2023-04-29T12:13:22;14.20;99.90
39345;DHT22;25061;51.954;6.996;2023-04-29T12:15:50;14.10;99.90
39345;DHT22;25061;51.954;6.996;2023-04-29T12:18:19;14.10;99.90
39345;DHT22;25061;51.954;6.996;2023-04-29T12:20:53;14.10;99.90
39345;DHT22;25061;51.954;6.996;2023-04-29T12:23:23;14.20;99.90
39345;DHT22;25061;51.954;6.996;2023-04-29T12:25:56;14.20;99.90
39345;DHT22;25061;51.954;6.996;2023-04-29T12:28:22;14.30;99.90
39345;DHT22;25061;51.954;6.996;2023-04-29T12:30:50;14.20;99.90
39345;DHT22;25061;51.954;6.996;2023-04-29T12:33:21;14.30;99.90
39345;DHT22;25061;51.954;6.996;2023-04-29T12:35:57;14.30;99.90
39345;DHT22;25061;51.954;6.996;2023-04-29T12:38:30;14.20;99.90
39345;DHT22;25061;51.954;6.996;2023-04-29T12:40:58;14.20;99.90
39345;DHT22;25061;51.954;6.996;2023-04-29T12:43:31;14.30;99.90
39345;DHT22;25061;51.954;6.996;2023-04-29T12:46:08;14.60;99.90
39345;DHT22;25061;51.954;6.996;2023-04-29T12:48:37;14.60;99.90
39345;DHT22;25061;51.954;6.996;2023-04-29T12:51:08;14.50;99.90
39345;DHT22;25061;51.954;6.996;2023-04-29T12:53:34;14.60;99.90
39345;DHT22;25061;51.954;6.996;2023-04-29T12:56:00;14.60;99.90
39345;DHT22;25061;51.954;6.996;2023-04-29T12:58:29;14.60;99.90
39345;DHT22;25061;51.954;6.996;2023-04-29T13:00:55;14.50;99.90
39345;DHT22;25061;51.954;6.996;2023-04-29T13:03:21;14.50;99.90
39345;DHT22;25061;51.954;6.996;2023-04-29T13:05:46;14.60;99.90
39345;DHT22;25061;51.954;6.996;2023-04-29T13:08:15;14.70;99.90
39345;DHT22;25061;51.954;6.996;2023-04-29T13:10:41;14.70;99.90
39345;DHT22;25061;51.954;6.996;2023-04-29T13:13:07;14.70;99.90
39345;DHT22;25061;51.954;6.996;2023-04-29T13:15:34;15.30;99.90
39345;DHT22;25061;51.954;6.996;2023-04-29T13:18:00;15.40;99.90
39345;DHT22;25061;51.954;6.996;2023-04-29T13:20:26;15.50;99.90
39345;DHT22;25061;51.954;6.996;2023-04-29T13:22:52;15.50;99.90
39345;DHT22;25061;51.954;6.996;2023-04-29T13:25:18;15.30;99.90
39345;DHT22;25061;51.954;6.996;2023-04-29T13:27:43;15.30;99.90
39345;DHT22;25061;51.954;6.996;2023-04-29T13:30:10;15.60;99.90
39345;DHT22;25061;51.954;6.996;2023-04-29T13:32:35;15.90;99.90
39345;DHT22;25061;51.954;6.996;2023-04-29T13:35:01;16.10;99.90
39345;DHT22;25061;51.954;6.996;2023-04-29T13:37:28;16.10;99.90
39345;DHT22;25061;51.954;6.996;2023-04-29T13:39:54;16.30;99.90
39345;DHT22;25061;51.954;6.996;2023-04-29T13:42:19;16.30;99.90
39345;DHT22;25061;51.954;6.996;2023-04-29T13:44:45;16.40;99.90
39345;DHT22;25061;51.954;6.996;2023-04-29T13:47:11;16.50;99.90
39345;DHT22;25061;51.954;6.996;2023-04-29T13:49:42;16.60;99.90
39345;DHT22;25061;51.954;6.996;2023-04-29T13:52:27;16.80;99.90
39345;DHT22;25061;51.954;6.996;2023-04-29T13:54:54;17.00;99.90
39345;DHT22;25061;51.954;6.996;2023-04-29T13:57:20;16.90;99.90
39345;DHT22;25061;51.954;6.996;2023-04-29T13:59:46;16.50;99.90
39345;DHT22;25061;51.954;6.996;2023-04-29T14:02:12;17.10;99.90
39345;DHT22;25061;51.954;6.996;2023-04-29T14:04:38;17.20;99.90
39345;DHT22;25061;51.954;6.996;2023-04-29T14:07:04;17.50;99.90
39345;DHT22;25061;51.954;6.996;2023-04-29T14:09:30;17.10;99.90
39345;DHT22;25061;51.954;6.996;2023-04-29T14:11:55;16.80;99.90
39345;DHT22;25061;51.954;6.996;2023-04-29T14:14:21;17.10;99.90
39345;DHT22;25061;51.954;6.996;2023-04-29T14:16:47;17.50;99.90
39345;DHT22;25061;51.954;6.996;2023-04-29T14:19:15;17.50;99.90
39345;DHT22;25061;51.954;6.996;2023-04-29T14:21:40;17.40;99.90
39345;DHT22;25061;51.954;6.996;2023-04-29T14:24:06;17.00;99.90
39345;DHT22;25061;51.954;6.996;2023-04-29T14:26:32;17.00;99.90
39345;DHT22;25061;51.954;6.996;2023-04-29T14:28:59;16.70;99.90
39345;DHT22;25061;51.954;6.996;2023-04-29T14:31:29;16.50;99.90
39345;DHT22;25061;51.954;6.996;2023-04-29T14:33:56;16.30;99.90
39345;DHT22;25061;51.954;6.996;2023-04-29T14:36:22;16.00;99.90
39345;DHT22;25061;51.954;6.996;2023-04-29T14:38:49;15.90;99.90
39345;DHT22;25061;51.954;6.996;2023-04-29T14:41:15;15.80;99.90
39345;DHT22;25061;51.954;6.996;2023-04-29T14:43:41;15.60;99.90
39345;DHT22;25061;51.954;6.996;2023-04-29T14:46:07;15.50;99.90
39345;DHT22;25061;51.954;6.996;2023-04-29T14:48:33;15.40;99.90
39345;DHT22;25061;51.954;6.996;2023-04-29T14:50:59;15.30;99.90
39345;DHT22;25061;51.954;6.996;2023-04-29T14:53:25;15.30;99.90
39345;DHT22;25061;51.954;6.996;2023-04-29T14:55:50;15.40;99.90
39345;DHT22;25061;51.954;6.996;2023-04-29T14:58:16;15.30;99.90
39345;DHT22;25061;51.954;6.996;2023-04-29T15:00:42;15.20;99.90
39345;DHT22;25061;51.954;6.996;2023-04-29T15:03:07;15.20;99.90
39345;DHT22;25061;51.954;6.996;2023-04-29T15:05:33;15.00;99.90
39345;DHT22;25061;51.954;6.996;2023-04-29T15:07:59;15.10;99.90
39345;DHT22;25061;51.954;6.996;2023-04-29T15:10:26;15.10;99.90
39345;DHT22;25061;51.954;6.996;2023-04-29T15:12:52;15.00;99.90
39345;DHT22;25061;51.954;6.996;2023-04-29T15:15:18;15.00;99.90
39345;DHT22;25061;51.954;6.996;2023-04-29T15:17:44;14.90;99.90
39345;DHT22;25061;51.954;6.996;2023-04-29T15:20:10;14.90;99.90
39345;DHT22;25061;51.954;6.996;2023-04-29T15:22:35;14.80;99.90
39345;DHT22;25061;51.954;6.996;2023-04-29T15:25:01;14.80;99.90
39345;DHT22;25061;51.954;6.996;2023-04-29T15:27:27;14.80;99.90
39345;DHT22;25061;51.954;6.996;2023-04-29T15:29:53;14.70;99.90
39345;DHT22;25061;51.954;6.996;2023-04-29T15:32:21;14.70;99.90
39345;DHT22;25061;51.954;6.996;2023-04-29T15:34:49;14.60;99.90
39345;DHT22;25061;51.954;6.996;2023-04-29T15:37:14;14.60;99.90
39345;DHT22;25061;51.954;6.996;2023-04-29T15:39:40;14.50;99.90
39345;DHT22;25061;51.954;6.996;2023-04-29T15:42:06;14.40;99.90
39345;DHT22;25061;51.954;6.996;2023-04-29T15:44:32;14.40;99.90
39345;DHT22;25061;51.954;6.996;2023-04-29T15:46:57;14.40;99.90
39345;DHT22;25061;51.954;6.996;2023-04-29T15:49:24;14.40;99.90
39345;DHT22;25061;51.954;6.996;2023-04-29T15:51:49;14.40;99.90
39345;DHT22;25061;51.954;6.996;2023-04-29T15:54:16;14.40;99.90
39345;DHT22;25061;51.954;6.996;2023-04-29T15:56:42;14.40;99.90
39345;DHT22;25061;51.954;6.996;2023-04-29T15:59:07;14.40;99.90
39345;DHT22;25061;51.954;6.996;2023-04-29T16:01:33;14.40;99.90
39345;DHT22;25061;51.954;6.996;2023-04-29T16:03:59;14.30;99.90
39345;DHT22;25061;51.954;6.996;2023-04-29T16:06:25;14.30;99.90
39345;DHT22;25061;51.954;6.996;2023-04-29T16:08:51;14.30;99.90
39345;DHT22;25061;51.954;6.996;2023-04-29T16:11:17;14.30;99.90
39345;DHT22;25061;51.954;6.996;2023-04-29T16:13:43;14.20;99.90
39345;DHT22;25061;51.954;6.996;2023-04-29T16:16:08;14.20;99.90
39345;DHT22;25061;51.954;6.996;2023-04-29T16:18:34;14.20;99.90
39345;DHT22;25061;51.954;6.996;2023-04-29T16:21:00;14.20;99.90
39345;DHT22;25061;51.954;6.996;2023-04-29T16:23:25;14.20;99.90
39345;DHT22;25061;51.954;6.996;2023-04-29T16:25:51;14.20;99.90
39345;DHT22;25061;51.954;6.996;2023-04-29T16:28:17;14.20;99.90
39345;DHT22;25061;51.954;6.996;2023-04-29T16:30:42;14.20;99.90
39345;DHT22;25061;51.954;6.996;2023-04-29T16:33:08;14.30;99.90
39345;DHT22;25061;51.954;6.996;2023-04-29T16:35:35;14.30;99.90
39345;DHT22;25061;51.954;6.996;2023-04-29T16:38:00;14.30;99.90
39345;DHT22;25061;51.954;6.996;2023-04-29T16:40:26;14.20;99.90
39345;DHT22;25061;51.954;6.996;2023-04-29T16:42:52;14.20;99.90
39345;DHT22;25061;51.954;6.996;2023-04-29T16:45:19;14.20;99.90
39345;DHT22;25061;51.954;6.996;2023-04-29T16:47:44;14.10;99.90
39345;DHT22;25061;51.954;6.996;2023-04-29T16:50:10;14.10;99.90
39345;DHT22;25061;51.954;6.996;2023-04-29T16:52:36;14.00;99.90
39345;DHT22;25061;51.954;6.996;2023-04-29T16:55:02;13.90;99.90
39345;DHT22;25061;51.954;6.996;2023-04-29T16:57:28;13.90;99.90
39345;DHT22;25061;51.954;6.996;2023-04-29T16:59:54;13.90;99.90
39345;DHT22;25061;51.954;6.996;2023-04-29T17:02:20;13.90;99.90
39345;DHT22;25061;51.954;6.996;2023-04-29T17:04:46;13.90;99.90
39345;DHT22;25061;51.954;6.996;2023-04-29T17:07:12;13.90;99.90
39345;DHT22;25061;51.954;6.996;2023-04-29T17:09:44;14.10;99.90
39345;DHT22;25061;51.954;6.996;2023-04-29T17:12:11;14.20;99.90
39345;DHT22;25061;51.954;6.996;2023-04-29T17:14:37;14.40;99.90
39345;DHT22;25061;51.954;6.996;2023-04-29T17:17:04;14.40;99.90
39345;DHT22;25061;51.954;6.996;2023-04-29T17:19:30;14.50;99.90
39345;DHT22;25061;51.954;6.996;2023-04-29T17:21:56;14.60;99.90
39345;DHT22;25061;51.954;6.996;2023-04-29T17:24:21;14.70;99.90
39345;DHT22;25061;51.954;6.996;2023-04-29T17:26:49;14.70;99.90
39345;DHT22;25061;51.954;6.996;2023-04-29T17:29:14;14.70;99.90
39345;DHT22;25061;51.954;6.996;2023-04-29T17:31:41;14.80;99.90
39345;DHT22;25061;51.954;6.996;2023-04-29T17:34:13;14.70;99.90
39345;DHT22;25061;51.954;6.996;2023-04-29T17:36:52;14.70;99.90
39345;DHT22;25061;51.954;6.996;2023-04-29T17:39:18;14.60;99.90
39345;DHT22;25061;51.954;6.996;2023-04-29T17:41:43;14.60;99.90
39345;DHT22;25061;51.954;6.996;2023-04-29T17:44:10;14.50;99.90
39345;DHT22;25061;51.954;6.996;2023-04-29T17:46:35;14.40;99.90
39345;DHT22;25061;51.954;6.996;2023-04-29T17:49:02;14.30;99.90
39345;DHT22;25061;51.954;6.996;2023-04-29T17:51:28;14.20;99.90
39345;DHT22;25061;51.954;6.996;2023-04-29T17:53:54;14.10;99.90
39345;DHT22;25061;51.954;6.996;2023-04-29T17:56:20;14.10;99.90
39345;DHT22;25061;51.954;6.996;2023-04-29T17:58:48;14.00;99.90
39345;DHT22;25061;51.954;6.996;2023-04-29T18:01:15;13.90;99.90
39345;DHT22;25061;51.954;6.996;2023-04-29T18:03:40;13.80;99.90
39345;DHT22;25061;51.954;6.996;2023-04-29T18:06:06;13.80;99.90
39345;DHT22;25061;51.954;6.996;2023-04-29T18:08:31;13.80;99.90
39345;DHT22;25061;51.954;6.996;2023-04-29T18:10:57;13.70;99.90
39345;DHT22;25061;51.954;6.996;2023-04-29T18:13:23;13.60;99.90
39345;DHT22;25061;51.954;6.996;2023-04-29T18:15:49;13.60;99.90
39345;DHT22;25061;51.954;6.996;2023-04-29T18:18:17;13.50;99.90
39345;DHT22;25061;51.954;6.996;2023-04-29T18:20:43;13.40;99.90
39345;DHT22;25061;51.954;6.996;2023-04-29T18:23:09;13.30;99.90
39345;DHT22;25061;51.954;6.996;2023-04-29T18:25:36;13.30;99.90
39345;DHT22;25061;51.954;6.996;2023-04-29T18:28:03;13.30;99.90
39345;DHT22;25061;51.954;6.996;2023-04-29T18:30:30;13.20;99.90
39345;DHT22;25061;51.954;6.996;2023-04-29T18:32:56;13.10;99.90
39345;DHT22;25061;51.954;6.996;2023-04-29T18:35:22;13.10;99.90
39345;DHT22;25061;51.954;6.996;2023-04-29T18:37:48;13.00;99.90
39345;DHT22;25061;51.954;6.996;2023-04-29T18:40:14;13.00;99.90
39345;DHT22;25061;51.954;6.996;2023-04-29T18:42:39;12.90;99.90
39345;DHT22;25061;51.954;6.996;2023-04-29T18:45:06;12.80;99.90
39345;DHT22;25061;51.954;6.996;2023-04-29T18:47:31;12.70;99.90
39345;DHT22;25061;51.954;6.996;2023-04-29T18:49:57;12.70;99.90
39345;DHT22;25061;51.954;6.996;2023-04-29T18:52:22;12.60;99.90
39345;DHT22;25061;51.954;6.996;2023-04-29T18:54:48;12.50;99.90
39345;DHT22;25061;51.954;6.996;2023-04-29T18:57:14;12.40;99.90
39345;DHT22;25061;51.954;6.996;2023-04-29T18:59:39;12.40;99.90
39345;DHT22;25061;51.954;6.996;2023-04-29T19:02:05;12.20;99.90
39345;DHT22;25061;51.954;6.996;2023-04-29T19:04:31;12.20;99.90
39345;DHT22;25061;51.954;6.996;2023-04-29T19:06:57;12.10;99.90
39345;DHT22;25061;51.954;6.996;2023-04-29T19:09:27;12.10;99.90
39345;DHT22;25061;51.954;6.996;2023-04-29T19:12:00;12.00;99.90
39345;DHT22;25061;51.954;6.996;2023-04-29T19:14:28;11.90;99.90
39345;DHT22;25061;51.954;6.996;2023-04-29T19:16:54;11.90;99.90
39345;DHT22;25061;51.954;6.996;2023-04-29T19:19:20;11.80;99.90
39345;DHT22;25061;51.954;6.996;2023-04-29T19:21:46;11.70;99.90
39345;DHT22;25061;51.954;6.996;2023-04-29T19:24:11;11.70;99.90
39345;DHT22;25061;51.954;6.996;2023-04-29T19:26:37;11.60;99.90
39345;DHT22;25061;51.954;6.996;2023-04-29T19:29:03;11.50;99.90
39345;DHT22;25061;51.954;6.996;2023-04-29T19:31:29;11.40;99.90
39345;DHT22;25061;51.954;6.996;2023-04-29T19:33:54;11.40;99.90
39345;DHT22;25061;51.954;6.996;2023-04-29T19:36:20;11.30;99.90
39345;DHT22;25061;51.954;6.996;2023-04-29T19:38:46;11.30;99.90
39345;DHT22;25061;51.954;6.996;2023-04-29T19:41:11;11.30;99.90
39345;DHT22;25061;51.954;6.996;2023-04-29T19:43:37;11.10;99.90
39345;DHT22;25061;51.954;6.996;2023-04-29T19:46:03;11.10;99.90
39345;DHT22;25061;51.954;6.996;2023-04-29T19:48:29;11.00;99.90
39345;DHT22;25061;51.954;6.996;2023-04-29T19:50:55;11.00;99.90
39345;DHT22;25061;51.954;6.996;2023-04-29T19:53:24;10.90;99.90
39345;DHT22;25061;51.954;6.996;2023-04-29T19:55:51;10.90;99.90
39345;DHT22;25061;51.954;6.996;2023-04-29T19:58:17;10.90;99.90
39345;DHT22;25061;51.954;6.996;2023-04-29T20:00:43;10.90;99.90
39345;DHT22;25061;51.954;6.996;2023-04-29T20:03:08;10.90;99.90
39345;DHT22;25061;51.954;6.996;2023-04-29T20:05:34;10.80;99.90
39345;DHT22;25061;51.954;6.996;2023-04-29T20:08:00;10.80;99.90
39345;DHT22;25061;51.954;6.996;2023-04-29T20:10:26;10.80;99.90
39345;DHT22;25061;51.954;6.996;2023-04-29T20:12:52;10.80;99.90
39345;DHT22;25061;51.954;6.996;2023-04-29T20:15:17;10.70;99.90
39345;DHT22;25061;51.954;6.996;2023-04-29T20:17:43;10.70;99.90
39345;DHT22;25061;51.954;6.996;2023-04-29T20:20:09;10.70;99.90
39345;DHT22;25061;51.954;6.996;2023-04-29T20:22:34;10.70;99.90
39345;DHT22;25061;51.954;6.996;2023-04-29T20:25:00;10.60;99.90
39345;DHT22;25061;51.954;6.996;2023-04-29T20:27:26;10.50;99.90
39345;DHT22;25061;51.954;6.996;2023-04-29T20:29:51;10.50;99.90
39345;DHT22;25061;51.954;6.996;2023-04-29T20:32:17;10.50;99.90
39345;DHT22;25061;51.954;6.996;2023-04-29T20:34:44;10.40;99.90
39345;DHT22;25061;51.954;6.996;2023-04-29T20:37:10;10.30;99.90
39345;DHT22;25061;51.954;6.996;2023-04-29T20:39:35;10.30;99.90
39345;DHT22;25061;51.954;6.996;2023-04-29T20:42:01;10.30;99.90
39345;DHT22;25061;51.954;6.996;2023-04-29T20:44:27;10.20;99.90
39345;DHT22;25061;51.954;6.996;2023-04-29T20:46:54;10.20;99.90
39345;DHT22;25061;51.954;6.996;2023-04-29T20:49:19;10.10;99.90
39345;DHT22;25061;51.954;6.996;2023-04-29T20:51:45;10.10;99.90
39345;DHT22;25061;51.954;6.996;2023-04-29T20:54:11;10.00;99.90
39345;DHT22;25061;51.954;6.996;2023-04-29T20:56:37;10.00;99.90
39345;DHT22;25061;51.954;6.996;2023-04-29T20:59:02;10.00;99.90
39345;DHT22;25061;51.954;6.996;2023-04-29T21:01:28;9.90;99.90
39345;DHT22;25061;51.954;6.996;2023-04-29T21:03:54;9.80;99.90
39345;DHT22;25061;51.954;6.996;2023-04-29T21:06:19;9.70;99.90
39345;DHT22;25061;51.954;6.996;2023-04-29T21:08:45;9.70;99.90
39345;DHT22;25061;51.954;6.996;2023-04-29T21:11:10;9.70;99.90
39345;DHT22;25061;51.954;6.996;2023-04-29T21:13:36;9.60;99.90
39345;DHT22;25061;51.954;6.996;2023-04-29T21:16:02;9.60;99.90
39345;DHT22;25061;51.954;6.996;2023-04-29T21:18:28;9.50;99.90
39345;DHT22;25061;51.954;6.996;2023-04-29T21:20:54;9.40;99.90